sensor_id;sensor_type;location;lat;lon;timestamp;P1;durP1;ratioP1;P2;durP2;ratioP2
29634;SDS011;16557;54.762;56.068;2022-11-20T00:01:52;13.72;;;4.00;;
29634;SDS011;16557;54.762;56.068;2022-11-20T00:04:22;10.65;;;4.00;;
29634;SDS011;16557;54.762;56.068;2022-11-20T00:06:51;10.78;;;3.72;;
29634;SDS011;16557;54.762;56.068;2022-11-20T00:09:20;9.80;;;4.03;;
29634;SDS011;16557;54.762;56.068;2022-11-20T00:11:49;12.05;;;4.10;;
29634;SDS011;16557;54.762;56.068;2022-11-20T00:14:19;10.85;;;4.45;;
29634;SDS011;16557;54.762;56.068;2022-11-20T00:16:48;12.82;;;4.58;;
29634;SDS011;16557;54.762;56.068;2022-11-20T00:19:17;8.75;;;3.60;;
29634;SDS011;16557;54.762;56.068;2022-11-20T00:21:46;8.55;;;3.37;;
29634;SDS011;16557;54.762;56.068;2022-11-20T00:24:17;9.08;;;3.77;;
29634;SDS011;16557;54.762;56.068;2022-11-20T00:26:46;10.72;;;3.72;;
29634;SDS011;16557;54.762;56.068;2022-11-20T00:29:16;10.70;;;4.30;;
29634;SDS011;16557;54.762;56.068;2022-11-20T00:31:45;8.43;;;3.70;;
29634;SDS011;16557;54.762;56.068;2022-11-20T00:34:14;11.53;;;3.90;;
29634;SDS011;16557;54.762;56.068;2022-11-20T00:36:43;12.30;;;4.25;;
29634;SDS011;16557;54.762;56.068;2022-11-20T00:39:12;10.00;;;4.08;;
29634;SDS011;16557;54.762;56.068;2022-11-20T00:41:42;7.08;;;3.37;;
29634;SDS011;16557;54.762;56.068;2022-11-20T00:44:11;9.53;;;4.05;;
29634;SDS011;16557;54.762;56.068;2022-11-20T00:46:40;12.65;;;3.65;;
29634;SDS011;16557;54.762;56.068;2022-11-20T00:49:09;8.95;;;3.60;;
29634;SDS011;16557;54.762;56.068;2022-11-20T00:51:39;12.47;;;3.87;;
29634;SDS011;16557;54.762;56.068;2022-11-20T00:54:08;11.75;;;4.35;;
29634;SDS011;16557;54.762;56.068;2022-11-20T00:56:37;10.23;;;3.87;;
29634;SDS011;16557;54.762;56.068;2022-11-20T00:59:08;12.28;;;4.42;;
29634;SDS011;16557;54.762;56.068;2022-11-20T01:01:38;10.95;;;4.40;;
29634;SDS011;16557;54.762;56.068;2022-11-20T01:04:07;15.28;;;4.37;;
29634;SDS011;16557;54.762;56.068;2022-11-20T01:06:37;10.00;;;4.50;;
29634;SDS011;16557;54.762;56.068;2022-11-20T01:09:13;14.87;;;4.35;;
29634;SDS011;16557;54.762;56.068;2022-11-20T01:11:39;10.50;;;4.28;;
29634;SDS011;16557;54.762;56.068;2022-11-20T01:14:11;12.37;;;4.20;;
29634;SDS011;16557;54.762;56.068;2022-11-20T01:16:46;10.00;;;3.98;;
29634;SDS011;16557;54.762;56.068;2022-11-20T01:19:17;11.83;;;4.72;;
29634;SDS011;16557;54.762;56.068;2022-11-20T01:21:49;15.43;;;4.62;;
29634;SDS011;16557;54.762;56.068;2022-11-20T01:24:20;13.78;;;5.33;;
29634;SDS011;16557;54.762;56.068;2022-11-20T01:26:50;11.65;;;4.50;;
29634;SDS011;16557;54.762;56.068;2022-11-20T01:29:21;13.53;;;5.00;;
29634;SDS011;16557;54.762;56.068;2022-11-20T01:31:51;11.78;;;4.28;;
29634;SDS011;16557;54.762;56.068;2022-11-20T01:34:21;14.28;;;5.08;;
29634;SDS011;16557;54.762;56.068;2022-11-20T01:36:51;7.95;;;4.47;;
29634;SDS011;16557;54.762;56.068;2022-11-20T01:39:25;12.78;;;4.90;;
29634;SDS011;16557;54.762;56.068;2022-11-20T01:41:55;13.48;;;4.42;;
29634;SDS011;16557;54.762;56.068;2022-11-20T01:44:55;15.53;;;4.80;;
29634;SDS011;16557;54.762;56.068;2022-11-20T01:49:59;9.63;;;4.15;;
29634;SDS011;16557;54.762;56.068;2022-11-20T01:52:37;12.35;;;4.55;;
29634;SDS011;16557;54.762;56.068;2022-11-20T01:55:19;11.45;;;4.33;;
29634;SDS011;16557;54.762;56.068;2022-11-20T01:57:48;14.00;;;4.67;;
29634;SDS011;16557;54.762;56.068;2022-11-20T02:00:18;12.00;;;4.12;;
29634;SDS011;16557;54.762;56.068;2022-11-20T02:02:50;12.75;;;4.33;;
29634;SDS011;16557;54.762;56.068;2022-11-20T02:08:11;9.20;;;4.03;;
29634;SDS011;16557;54.762;56.068;2022-11-20T02:10:40;13.13;;;4.67;;
29634;SDS011;16557;54.762;56.068;2022-11-20T02:13:10;9.85;;;4.08;;
29634;SDS011;16557;54.762;56.068;2022-11-20T02:15:58;10.25;;;4.67;;
29634;SDS011;16557;54.762;56.068;2022-11-20T02:18:27;13.72;;;4.35;;
29634;SDS011;16557;54.762;56.068;2022-11-20T02:23:34;11.03;;;4.22;;
29634;SDS011;16557;54.762;56.068;2022-11-20T02:26:21;8.85;;;3.60;;
29634;SDS011;16557;54.762;56.068;2022-11-20T02:28:51;13.38;;;3.87;;
29634;SDS011;16557;54.762;56.068;2022-11-20T02:31:20;9.65;;;3.50;;
29634;SDS011;16557;54.762;56.068;2022-11-20T02:33:56;9.58;;;3.98;;
29634;SDS011;16557;54.762;56.068;2022-11-20T02:36:26;9.83;;;3.90;;
29634;SDS011;16557;54.762;56.068;2022-11-20T02:38:56;10.32;;;4.45;;
29634;SDS011;16557;54.762;56.068;2022-11-20T02:41:37;14.83;;;4.95;;
29634;SDS011;16557;54.762;56.068;2022-11-20T02:44:03;12.53;;;4.35;;
29634;SDS011;16557;54.762;56.068;2022-11-20T02:46:33;12.40;;;3.98;;
29634;SDS011;16557;54.762;56.068;2022-11-20T02:49:02;11.43;;;4.20;;
29634;SDS011;16557;54.762;56.068;2022-11-20T02:51:32;10.82;;;4.50;;
29634;SDS011;16557;54.762;56.068;2022-11-20T02:54:02;8.18;;;3.75;;
29634;SDS011;16557;54.762;56.068;2022-11-20T02:56:31;9.35;;;3.65;;
29634;SDS011;16557;54.762;56.068;2022-11-20T02:59:00;8.75;;;3.80;;
29634;SDS011;16557;54.762;56.068;2022-11-20T03:01:30;11.65;;;4.40;;
29634;SDS011;16557;54.762;56.068;2022-11-20T03:03:59;9.25;;;4.25;;
29634;SDS011;16557;54.762;56.068;2022-11-20T03:06:28;11.70;;;4.00;;
29634;SDS011;16557;54.762;56.068;2022-11-20T03:08:58;11.43;;;4.35;;
29634;SDS011;16557;54.762;56.068;2022-11-20T03:11:27;13.43;;;3.85;;
29634;SDS011;16557;54.762;56.068;2022-11-20T03:13:57;8.40;;;3.95;;
29634;SDS011;16557;54.762;56.068;2022-11-20T03:16:31;14.80;;;4.62;;
29634;SDS011;16557;54.762;56.068;2022-11-20T03:19:00;14.70;;;5.37;;
29634;SDS011;16557;54.762;56.068;2022-11-20T03:21:30;9.58;;;4.47;;
29634;SDS011;16557;54.762;56.068;2022-11-20T03:24:01;12.40;;;4.17;;
29634;SDS011;16557;54.762;56.068;2022-11-20T03:26:30;14.47;;;5.37;;
29634;SDS011;16557;54.762;56.068;2022-11-20T03:29:01;8.50;;;3.92;;
29634;SDS011;16557;54.762;56.068;2022-11-20T03:31:38;13.98;;;4.60;;
29634;SDS011;16557;54.762;56.068;2022-11-20T03:34:09;12.93;;;4.03;;
29634;SDS011;16557;54.762;56.068;2022-11-20T03:36:40;26.75;;;9.00;;
29634;SDS011;16557;54.762;56.068;2022-11-20T03:39:09;15.23;;;5.15;;
29634;SDS011;16557;54.762;56.068;2022-11-20T03:41:40;15.60;;;5.00;;
29634;SDS011;16557;54.762;56.068;2022-11-20T03:44:10;9.95;;;3.87;;
29634;SDS011;16557;54.762;56.068;2022-11-20T03:46:40;24.25;;;9.30;;
29634;SDS011;16557;54.762;56.068;2022-11-20T03:49:09;15.50;;;4.12;;
29634;SDS011;16557;54.762;56.068;2022-11-20T03:51:38;12.63;;;4.50;;
29634;SDS011;16557;54.762;56.068;2022-11-20T03:54:08;7.92;;;4.00;;
29634;SDS011;16557;54.762;56.068;2022-11-20T03:56:37;7.40;;;3.60;;
29634;SDS011;16557;54.762;56.068;2022-11-20T03:59:09;9.00;;;4.70;;
29634;SDS011;16557;54.762;56.068;2022-11-20T04:01:38;10.93;;;4.85;;
29634;SDS011;16557;54.762;56.068;2022-11-20T04:04:07;8.65;;;3.87;;
29634;SDS011;16557;54.762;56.068;2022-11-20T04:06:37;15.93;;;5.08;;
29634;SDS011;16557;54.762;56.068;2022-11-20T04:09:06;10.53;;;4.08;;
29634;SDS011;16557;54.762;56.068;2022-11-20T04:11:36;10.93;;;5.08;;
29634;SDS011;16557;54.762;56.068;2022-11-20T04:14:11;10.90;;;3.72;;
29634;SDS011;16557;54.762;56.068;2022-11-20T04:16:41;9.18;;;4.10;;
29634;SDS011;16557;54.762;56.068;2022-11-20T04:19:16;8.95;;;3.83;;
29634;SDS011;16557;54.762;56.068;2022-11-20T04:21:43;14.78;;;4.72;;
29634;SDS011;16557;54.762;56.068;2022-11-20T04:24:12;10.70;;;4.90;;
29634;SDS011;16557;54.762;56.068;2022-11-20T04:26:41;11.20;;;4.95;;
29634;SDS011;16557;54.762;56.068;2022-11-20T04:29:11;9.40;;;4.47;;
29634;SDS011;16557;54.762;56.068;2022-11-20T04:31:40;9.90;;;3.90;;
29634;SDS011;16557;54.762;56.068;2022-11-20T04:34:10;11.65;;;3.70;;
29634;SDS011;16557;54.762;56.068;2022-11-20T04:36:40;10.65;;;4.37;;
29634;SDS011;16557;54.762;56.068;2022-11-20T04:39:13;8.10;;;4.20;;
29634;SDS011;16557;54.762;56.068;2022-11-20T04:41:43;11.22;;;4.42;;
29634;SDS011;16557;54.762;56.068;2022-11-20T04:44:12;13.95;;;5.00;;
29634;SDS011;16557;54.762;56.068;2022-11-20T04:46:41;13.90;;;5.12;;
29634;SDS011;16557;54.762;56.068;2022-11-20T04:49:11;13.18;;;5.22;;
29634;SDS011;16557;54.762;56.068;2022-11-20T04:51:40;18.50;;;6.97;;
29634;SDS011;16557;54.762;56.068;2022-11-20T04:54:10;12.70;;;5.03;;
29634;SDS011;16557;54.762;56.068;2022-11-20T04:56:40;12.10;;;4.92;;
29634;SDS011;16557;54.762;56.068;2022-11-20T04:59:09;10.32;;;4.42;;
29634;SDS011;16557;54.762;56.068;2022-11-20T05:01:38;12.90;;;4.83;;
29634;SDS011;16557;54.762;56.068;2022-11-20T05:04:07;11.22;;;5.15;;
29634;SDS011;16557;54.762;56.068;2022-11-20T05:06:37;8.98;;;4.53;;
29634;SDS011;16557;54.762;56.068;2022-11-20T05:09:06;10.18;;;5.00;;
29634;SDS011;16557;54.762;56.068;2022-11-20T05:11:35;11.73;;;4.80;;
29634;SDS011;16557;54.762;56.068;2022-11-20T05:14:05;10.68;;;4.60;;
29634;SDS011;16557;54.762;56.068;2022-11-20T05:16:34;13.00;;;5.97;;
29634;SDS011;16557;54.762;56.068;2022-11-20T05:19:04;12.07;;;4.60;;
29634;SDS011;16557;54.762;56.068;2022-11-20T05:21:33;11.12;;;4.42;;
29634;SDS011;16557;54.762;56.068;2022-11-20T05:24:02;12.13;;;5.17;;
29634;SDS011;16557;54.762;56.068;2022-11-20T05:26:32;10.25;;;5.08;;
29634;SDS011;16557;54.762;56.068;2022-11-20T05:29:01;12.35;;;5.70;;
29634;SDS011;16557;54.762;56.068;2022-11-20T05:31:30;13.15;;;4.97;;
29634;SDS011;16557;54.762;56.068;2022-11-20T05:34:00;13.08;;;5.20;;
29634;SDS011;16557;54.762;56.068;2022-11-20T05:36:29;10.55;;;4.65;;
29634;SDS011;16557;54.762;56.068;2022-11-20T05:38:58;15.18;;;6.05;;
29634;SDS011;16557;54.762;56.068;2022-11-20T05:41:28;18.80;;;7.72;;
29634;SDS011;16557;54.762;56.068;2022-11-20T05:43:57;15.75;;;7.62;;
29634;SDS011;16557;54.762;56.068;2022-11-20T05:46:26;14.23;;;6.75;;
29634;SDS011;16557;54.762;56.068;2022-11-20T05:48:56;11.73;;;6.55;;
29634;SDS011;16557;54.762;56.068;2022-11-20T05:51:25;16.70;;;7.10;;
29634;SDS011;16557;54.762;56.068;2022-11-20T05:53:57;11.33;;;7.05;;
29634;SDS011;16557;54.762;56.068;2022-11-20T05:56:27;16.30;;;7.45;;
29634;SDS011;16557;54.762;56.068;2022-11-20T05:58:56;12.70;;;6.58;;
29634;SDS011;16557;54.762;56.068;2022-11-20T06:01:25;11.93;;;6.50;;
29634;SDS011;16557;54.762;56.068;2022-11-20T06:03:54;14.58;;;7.25;;
29634;SDS011;16557;54.762;56.068;2022-11-20T06:06:24;14.07;;;5.95;;
29634;SDS011;16557;54.762;56.068;2022-11-20T06:08:54;13.85;;;5.85;;
29634;SDS011;16557;54.762;56.068;2022-11-20T06:11:23;15.40;;;5.58;;
29634;SDS011;16557;54.762;56.068;2022-11-20T06:13:53;13.30;;;6.65;;
29634;SDS011;16557;54.762;56.068;2022-11-20T06:16:22;14.20;;;6.67;;
29634;SDS011;16557;54.762;56.068;2022-11-20T06:18:51;12.63;;;6.33;;
29634;SDS011;16557;54.762;56.068;2022-11-20T06:21:21;20.30;;;7.53;;
29634;SDS011;16557;54.762;56.068;2022-11-20T06:23:51;16.02;;;7.58;;
29634;SDS011;16557;54.762;56.068;2022-11-20T06:26:24;22.75;;;9.08;;
29634;SDS011;16557;54.762;56.068;2022-11-20T06:28:54;21.68;;;9.85;;
29634;SDS011;16557;54.762;56.068;2022-11-20T06:31:24;22.60;;;10.35;;
29634;SDS011;16557;54.762;56.068;2022-11-20T06:33:54;18.48;;;9.55;;
29634;SDS011;16557;54.762;56.068;2022-11-20T06:36:23;18.48;;;8.33;;
29634;SDS011;16557;54.762;56.068;2022-11-20T06:38:53;23.20;;;11.65;;
29634;SDS011;16557;54.762;56.068;2022-11-20T06:41:23;20.60;;;9.93;;
29634;SDS011;16557;54.762;56.068;2022-11-20T06:43:52;17.27;;;9.73;;
29634;SDS011;16557;54.762;56.068;2022-11-20T06:46:21;24.43;;;11.08;;
29634;SDS011;16557;54.762;56.068;2022-11-20T06:48:51;17.75;;;9.38;;
29634;SDS011;16557;54.762;56.068;2022-11-20T06:51:20;15.40;;;7.55;;
29634;SDS011;16557;54.762;56.068;2022-11-20T06:53:49;13.08;;;6.55;;
29634;SDS011;16557;54.762;56.068;2022-11-20T06:56:19;13.60;;;5.97;;
29634;SDS011;16557;54.762;56.068;2022-11-20T06:58:48;14.78;;;6.25;;
29634;SDS011;16557;54.762;56.068;2022-11-20T07:01:17;15.88;;;6.87;;
29634;SDS011;16557;54.762;56.068;2022-11-20T07:03:48;14.00;;;6.15;;
29634;SDS011;16557;54.762;56.068;2022-11-20T07:06:18;11.00;;;5.45;;
29634;SDS011;16557;54.762;56.068;2022-11-20T07:08:47;13.30;;;6.05;;
29634;SDS011;16557;54.762;56.068;2022-11-20T07:11:20;11.65;;;4.75;;
29634;SDS011;16557;54.762;56.068;2022-11-20T07:13:50;16.35;;;5.55;;
29634;SDS011;16557;54.762;56.068;2022-11-20T07:16:19;11.88;;;5.03;;
29634;SDS011;16557;54.762;56.068;2022-11-20T07:18:49;11.57;;;4.97;;
29634;SDS011;16557;54.762;56.068;2022-11-20T07:21:18;12.33;;;5.03;;
29634;SDS011;16557;54.762;56.068;2022-11-20T07:23:47;12.28;;;4.92;;
29634;SDS011;16557;54.762;56.068;2022-11-20T07:26:16;11.55;;;5.15;;
29634;SDS011;16557;54.762;56.068;2022-11-20T07:28:46;12.75;;;4.65;;
29634;SDS011;16557;54.762;56.068;2022-11-20T07:31:15;9.23;;;4.35;;
29634;SDS011;16557;54.762;56.068;2022-11-20T07:33:45;9.35;;;4.03;;
29634;SDS011;16557;54.762;56.068;2022-11-20T07:36:14;8.75;;;4.25;;
29634;SDS011;16557;54.762;56.068;2022-11-20T07:38:44;7.70;;;4.28;;
29634;SDS011;16557;54.762;56.068;2022-11-20T07:41:13;9.23;;;4.83;;
29634;SDS011;16557;54.762;56.068;2022-11-20T07:43:43;11.18;;;4.60;;
29634;SDS011;16557;54.762;56.068;2022-11-20T07:46:12;11.35;;;4.12;;
29634;SDS011;16557;54.762;56.068;2022-11-20T07:48:41;10.10;;;4.40;;
29634;SDS011;16557;54.762;56.068;2022-11-20T07:51:10;10.45;;;5.12;;
29634;SDS011;16557;54.762;56.068;2022-11-20T07:53:40;12.68;;;4.40;;
29634;SDS011;16557;54.762;56.068;2022-11-20T07:56:09;9.30;;;5.45;;
29634;SDS011;16557;54.762;56.068;2022-11-20T07:58:40;8.48;;;3.92;;
29634;SDS011;16557;54.762;56.068;2022-11-20T08:01:09;7.42;;;4.42;;
29634;SDS011;16557;54.762;56.068;2022-11-20T08:03:39;11.08;;;4.37;;
29634;SDS011;16557;54.762;56.068;2022-11-20T08:06:08;8.25;;;4.35;;
29634;SDS011;16557;54.762;56.068;2022-11-20T08:08:37;8.33;;;4.37;;
29634;SDS011;16557;54.762;56.068;2022-11-20T08:11:06;9.65;;;4.17;;
29634;SDS011;16557;54.762;56.068;2022-11-20T08:13:53;9.80;;;4.58;;
29634;SDS011;16557;54.762;56.068;2022-11-20T08:16:42;11.48;;;3.87;;
29634;SDS011;16557;54.762;56.068;2022-11-20T08:19:14;10.15;;;4.97;;
29634;SDS011;16557;54.762;56.068;2022-11-20T08:21:45;9.30;;;4.12;;
29634;SDS011;16557;54.762;56.068;2022-11-20T08:24:14;10.15;;;4.45;;
29634;SDS011;16557;54.762;56.068;2022-11-20T08:26:43;9.15;;;4.60;;
29634;SDS011;16557;54.762;56.068;2022-11-20T08:29:14;9.58;;;4.45;;
29634;SDS011;16557;54.762;56.068;2022-11-20T08:31:43;8.50;;;3.95;;
29634;SDS011;16557;54.762;56.068;2022-11-20T08:34:12;9.45;;;4.72;;
29634;SDS011;16557;54.762;56.068;2022-11-20T08:36:41;11.03;;;5.15;;
29634;SDS011;16557;54.762;56.068;2022-11-20T08:39:11;12.00;;;4.85;;
29634;SDS011;16557;54.762;56.068;2022-11-20T08:41:40;8.38;;;4.55;;
29634;SDS011;16557;54.762;56.068;2022-11-20T08:44:10;10.08;;;4.90;;
29634;SDS011;16557;54.762;56.068;2022-11-20T08:46:40;12.73;;;4.70;;
29634;SDS011;16557;54.762;56.068;2022-11-20T08:49:11;11.45;;;4.17;;
29634;SDS011;16557;54.762;56.068;2022-11-20T08:51:41;14.55;;;5.50;;
29634;SDS011;16557;54.762;56.068;2022-11-20T08:54:10;9.00;;;4.20;;
29634;SDS011;16557;54.762;56.068;2022-11-20T08:56:40;11.30;;;4.75;;
29634;SDS011;16557;54.762;56.068;2022-11-20T08:59:09;9.15;;;4.37;;
29634;SDS011;16557;54.762;56.068;2022-11-20T09:01:39;10.80;;;4.85;;
29634;SDS011;16557;54.762;56.068;2022-11-20T09:04:08;10.72;;;4.55;;
29634;SDS011;16557;54.762;56.068;2022-11-20T09:06:38;11.50;;;4.53;;
29634;SDS011;16557;54.762;56.068;2022-11-20T09:09:08;11.65;;;4.90;;
29634;SDS011;16557;54.762;56.068;2022-11-20T09:11:37;17.00;;;5.25;;
29634;SDS011;16557;54.762;56.068;2022-11-20T09:14:06;12.45;;;5.22;;
29634;SDS011;16557;54.762;56.068;2022-11-20T09:16:36;10.28;;;5.03;;
29634;SDS011;16557;54.762;56.068;2022-11-20T09:19:05;12.78;;;5.53;;
29634;SDS011;16557;54.762;56.068;2022-11-20T09:21:34;11.35;;;5.25;;
29634;SDS011;16557;54.762;56.068;2022-11-20T09:24:04;12.95;;;6.00;;
29634;SDS011;16557;54.762;56.068;2022-11-20T09:26:34;16.23;;;6.45;;
29634;SDS011;16557;54.762;56.068;2022-11-20T09:29:03;11.43;;;5.53;;
29634;SDS011;16557;54.762;56.068;2022-11-20T09:31:33;13.62;;;6.25;;
29634;SDS011;16557;54.762;56.068;2022-11-20T09:34:02;15.35;;;6.05;;
29634;SDS011;16557;54.762;56.068;2022-11-20T09:36:32;14.33;;;6.70;;
29634;SDS011;16557;54.762;56.068;2022-11-20T09:39:01;16.82;;;6.62;;
29634;SDS011;16557;54.762;56.068;2022-11-20T09:41:42;24.27;;;8.98;;
29634;SDS011;16557;54.762;56.068;2022-11-20T09:44:31;13.65;;;7.08;;
29634;SDS011;16557;54.762;56.068;2022-11-20T09:50:07;19.35;;;7.12;;
29634;SDS011;16557;54.762;56.068;2022-11-20T09:55:38;14.03;;;6.40;;
29634;SDS011;16557;54.762;56.068;2022-11-20T10:00:46;17.15;;;7.10;;
29634;SDS011;16557;54.762;56.068;2022-11-20T10:03:17;9.90;;;6.00;;
29634;SDS011;16557;54.762;56.068;2022-11-20T10:05:50;14.98;;;6.78;;
29634;SDS011;16557;54.762;56.068;2022-11-20T10:08:39;17.17;;;6.00;;
29634;SDS011;16557;54.762;56.068;2022-11-20T10:13:58;24.32;;;10.23;;
29634;SDS011;16557;54.762;56.068;2022-11-20T10:16:40;16.00;;;7.80;;
29634;SDS011;16557;54.762;56.068;2022-11-20T10:19:24;18.35;;;7.40;;
29634;SDS011;16557;54.762;56.068;2022-11-20T10:22:20;17.67;;;7.92;;
29634;SDS011;16557;54.762;56.068;2022-11-20T10:25:10;15.00;;;6.75;;
29634;SDS011;16557;54.762;56.068;2022-11-20T10:27:45;18.05;;;7.55;;
29634;SDS011;16557;54.762;56.068;2022-11-20T10:30:23;14.83;;;7.22;;
29634;SDS011;16557;54.762;56.068;2022-11-20T10:32:54;15.95;;;7.53;;
29634;SDS011;16557;54.762;56.068;2022-11-20T10:35:26;18.27;;;10.20;;
29634;SDS011;16557;54.762;56.068;2022-11-20T10:37:57;17.73;;;8.30;;
29634;SDS011;16557;54.762;56.068;2022-11-20T10:40:45;17.00;;;8.33;;
29634;SDS011;16557;54.762;56.068;2022-11-20T10:43:13;17.37;;;8.30;;
29634;SDS011;16557;54.762;56.068;2022-11-20T10:45:57;17.20;;;7.92;;
29634;SDS011;16557;54.762;56.068;2022-11-20T10:48:30;16.57;;;8.33;;
29634;SDS011;16557;54.762;56.068;2022-11-20T10:51:24;19.92;;;8.95;;
29634;SDS011;16557;54.762;56.068;2022-11-20T11:02:17;18.42;;;8.30;;
29634;SDS011;16557;54.762;56.068;2022-11-20T11:04:49;20.30;;;7.20;;
29634;SDS011;16557;54.762;56.068;2022-11-20T11:12:45;18.52;;;8.65;;
29634;SDS011;16557;54.762;56.068;2022-11-20T11:15:27;23.40;;;10.72;;
29634;SDS011;16557;54.762;56.068;2022-11-20T11:18:22;17.98;;;9.23;;
29634;SDS011;16557;54.762;56.068;2022-11-20T11:20:38;23.07;;;8.90;;
29634;SDS011;16557;54.762;56.068;2022-11-20T11:23:22;22.62;;;10.25;;
29634;SDS011;16557;54.762;56.068;2022-11-20T11:25:55;20.25;;;9.43;;
29634;SDS011;16557;54.762;56.068;2022-11-20T11:28:19;21.10;;;9.75;;
29634;SDS011;16557;54.762;56.068;2022-11-20T11:30:51;17.35;;;8.40;;
29634;SDS011;16557;54.762;56.068;2022-11-20T11:33:21;23.25;;;9.95;;
29634;SDS011;16557;54.762;56.068;2022-11-20T11:36:00;19.85;;;9.55;;
29634;SDS011;16557;54.762;56.068;2022-11-20T11:41:12;23.00;;;9.85;;
29634;SDS011;16557;54.762;56.068;2022-11-20T11:43:49;15.80;;;7.67;;
29634;SDS011;16557;54.762;56.068;2022-11-20T11:46:37;19.87;;;9.60;;
29634;SDS011;16557;54.762;56.068;2022-11-20T11:51:57;18.55;;;9.15;;
29634;SDS011;16557;54.762;56.068;2022-11-20T11:57:10;20.02;;;10.40;;
29634;SDS011;16557;54.762;56.068;2022-11-20T11:59:41;22.93;;;10.78;;
29634;SDS011;16557;54.762;56.068;2022-11-20T12:02:24;30.62;;;13.20;;
29634;SDS011;16557;54.762;56.068;2022-11-20T12:08:13;32.78;;;16.00;;
29634;SDS011;16557;54.762;56.068;2022-11-20T12:16:34;29.82;;;14.15;;
29634;SDS011;16557;54.762;56.068;2022-11-20T12:19:10;29.10;;;13.60;;
29634;SDS011;16557;54.762;56.068;2022-11-20T12:30:00;25.40;;;11.50;;
29634;SDS011;16557;54.762;56.068;2022-11-20T12:32:45;24.82;;;11.20;;
29634;SDS011;16557;54.762;56.068;2022-11-20T12:35:32;25.30;;;11.40;;
29634;SDS011;16557;54.762;56.068;2022-11-20T12:56:04;23.18;;;12.33;;
29634;SDS011;16557;54.762;56.068;2022-11-20T13:06:43;25.32;;;13.15;;
29634;SDS011;16557;54.762;56.068;2022-11-20T13:09:14;24.27;;;12.33;;
29634;SDS011;16557;54.762;56.068;2022-11-20T13:14:35;26.90;;;13.00;;
29634;SDS011;16557;54.762;56.068;2022-11-20T13:17:24;24.15;;;12.80;;
29634;SDS011;16557;54.762;56.068;2022-11-20T13:19:55;26.48;;;13.70;;
29634;SDS011;16557;54.762;56.068;2022-11-20T13:22:28;24.65;;;12.37;;
29634;SDS011;16557;54.762;56.068;2022-11-20T13:24:59;20.85;;;11.55;;
29634;SDS011;16557;54.762;56.068;2022-11-20T13:27:29;20.02;;;10.60;;
29634;SDS011;16557;54.762;56.068;2022-11-20T13:29:59;19.60;;;9.95;;
29634;SDS011;16557;54.762;56.068;2022-11-20T13:32:48;18.62;;;10.58;;
29634;SDS011;16557;54.762;56.068;2022-11-20T13:35:32;23.47;;;11.00;;
29634;SDS011;16557;54.762;56.068;2022-11-20T13:38:12;20.70;;;9.70;;
29634;SDS011;16557;54.762;56.068;2022-11-20T13:40:53;18.10;;;8.53;;
29634;SDS011;16557;54.762;56.068;2022-11-20T13:43:42;16.40;;;8.10;;
29634;SDS011;16557;54.762;56.068;2022-11-20T13:46:14;18.05;;;8.73;;
29634;SDS011;16557;54.762;56.068;2022-11-20T13:48:44;17.85;;;8.18;;
29634;SDS011;16557;54.762;56.068;2022-11-20T13:51:15;19.50;;;9.15;;
29634;SDS011;16557;54.762;56.068;2022-11-20T13:56:54;21.53;;;9.20;;
29634;SDS011;16557;54.762;56.068;2022-11-20T13:59:36;16.57;;;8.50;;
29634;SDS011;16557;54.762;56.068;2022-11-20T14:02:19;16.12;;;8.83;;
29634;SDS011;16557;54.762;56.068;2022-11-20T14:04:51;18.67;;;8.75;;
29634;SDS011;16557;54.762;56.068;2022-11-20T14:07:21;17.92;;;8.18;;
29634;SDS011;16557;54.762;56.068;2022-11-20T14:09:54;18.55;;;8.23;;
29634;SDS011;16557;54.762;56.068;2022-11-20T14:12:28;16.35;;;8.50;;
29634;SDS011;16557;54.762;56.068;2022-11-20T14:14:58;19.90;;;7.87;;
29634;SDS011;16557;54.762;56.068;2022-11-20T14:17:33;17.35;;;7.85;;
29634;SDS011;16557;54.762;56.068;2022-11-20T14:20:05;21.20;;;8.20;;
29634;SDS011;16557;54.762;56.068;2022-11-20T14:22:36;16.40;;;8.40;;
29634;SDS011;16557;54.762;56.068;2022-11-20T14:27:51;15.23;;;7.67;;
29634;SDS011;16557;54.762;56.068;2022-11-20T14:30:23;19.20;;;8.55;;
29634;SDS011;16557;54.762;56.068;2022-11-20T14:32:55;15.10;;;8.23;;
29634;SDS011;16557;54.762;56.068;2022-11-20T14:35:34;14.60;;;7.45;;
29634;SDS011;16557;54.762;56.068;2022-11-20T14:37:57;17.32;;;7.87;;
29634;SDS011;16557;54.762;56.068;2022-11-20T14:40:31;14.93;;;7.72;;
29634;SDS011;16557;54.762;56.068;2022-11-20T14:45:55;16.90;;;7.40;;
29634;SDS011;16557;54.762;56.068;2022-11-20T14:48:32;15.58;;;7.97;;
29634;SDS011;16557;54.762;56.068;2022-11-20T14:54:13;15.03;;;7.55;;
29634;SDS011;16557;54.762;56.068;2022-11-20T14:56:56;17.05;;;7.33;;
29634;SDS011;16557;54.762;56.068;2022-11-20T14:59:30;18.50;;;8.43;;
29634;SDS011;16557;54.762;56.068;2022-11-20T15:02:08;21.42;;;7.60;;
29634;SDS011;16557;54.762;56.068;2022-11-20T15:04:45;15.75;;;7.65;;
29634;SDS011;16557;54.762;56.068;2022-11-20T15:07:24;19.32;;;9.28;;
29634;SDS011;16557;54.762;56.068;2022-11-20T15:10:05;15.75;;;7.25;;
29634;SDS011;16557;54.762;56.068;2022-11-20T15:15:20;49.10;;;22.27;;
29634;SDS011;16557;54.762;56.068;2022-11-20T15:17:55;23.65;;;8.90;;
29634;SDS011;16557;54.762;56.068;2022-11-20T15:20:25;15.63;;;7.95;;
29634;SDS011;16557;54.762;56.068;2022-11-20T15:22:57;19.40;;;8.63;;
29634;SDS011;16557;54.762;56.068;2022-11-20T15:25:26;14.40;;;8.58;;
29634;SDS011;16557;54.762;56.068;2022-11-20T15:27:56;17.50;;;9.33;;
29634;SDS011;16557;54.762;56.068;2022-11-20T15:30:25;19.80;;;8.78;;
29634;SDS011;16557;54.762;56.068;2022-11-20T15:32:54;18.40;;;9.25;;
29634;SDS011;16557;54.762;56.068;2022-11-20T15:35:24;18.23;;;9.20;;
29634;SDS011;16557;54.762;56.068;2022-11-20T15:37:54;19.42;;;9.98;;
29634;SDS011;16557;54.762;56.068;2022-11-20T15:40:23;20.77;;;9.53;;
29634;SDS011;16557;54.762;56.068;2022-11-20T15:42:52;29.18;;;10.72;;
29634;SDS011;16557;54.762;56.068;2022-11-20T15:45:37;23.60;;;10.58;;
29634;SDS011;16557;54.762;56.068;2022-11-20T15:48:03;20.02;;;9.93;;
29634;SDS011;16557;54.762;56.068;2022-11-20T15:50:38;20.40;;;10.08;;
29634;SDS011;16557;54.762;56.068;2022-11-20T15:53:07;21.87;;;10.98;;
29634;SDS011;16557;54.762;56.068;2022-11-20T15:55:37;23.38;;;11.18;;
29634;SDS011;16557;54.762;56.068;2022-11-20T15:58:07;19.27;;;10.45;;
29634;SDS011;16557;54.762;56.068;2022-11-20T16:00:36;19.95;;;9.80;;
29634;SDS011;16557;54.762;56.068;2022-11-20T16:03:07;20.92;;;10.40;;
29634;SDS011;16557;54.762;56.068;2022-11-20T16:05:38;20.00;;;10.13;;
29634;SDS011;16557;54.762;56.068;2022-11-20T16:08:07;20.30;;;10.82;;
29634;SDS011;16557;54.762;56.068;2022-11-20T16:10:37;26.00;;;11.57;;
29634;SDS011;16557;54.762;56.068;2022-11-20T16:13:13;21.55;;;10.70;;
29634;SDS011;16557;54.762;56.068;2022-11-20T16:16:05;21.82;;;10.68;;
29634;SDS011;16557;54.762;56.068;2022-11-20T16:18:37;20.82;;;10.82;;
29634;SDS011;16557;54.762;56.068;2022-11-20T16:21:10;22.20;;;10.78;;
29634;SDS011;16557;54.762;56.068;2022-11-20T16:23:40;20.92;;;10.88;;
29634;SDS011;16557;54.762;56.068;2022-11-20T16:26:11;20.62;;;10.08;;
29634;SDS011;16557;54.762;56.068;2022-11-20T16:28:41;20.32;;;10.85;;
29634;SDS011;16557;54.762;56.068;2022-11-20T16:31:11;20.10;;;9.70;;